Time;durP1;ratioP1;P1;durP2;ratioP2;P2;SDS_P1;SDS_P2;PMS_P1;PMS_P2;Temp;Humidity;BMP_temperature;BMP_pressure;BME280_temperature;BME280_humidity;BME280_pressure;Samples;Min_cycle;Max_cycle;Signal;HPM_P1;HPM_P2
2022/05/28 00:01:24;;;;;;;5.03;3.40;;;;;;;19.74;52.40;99134.84;6955133;28;20226;-79
2022/05/28 00:04:47;;;;;;;10.27;3.93;;;;;;;19.65;54.37;99138.28;6949865;28;20558;-77
2022/05/28 00:08:08;;;;;;;7.27;4.00;;;;;;;19.16;55.80;99139.25;6934518;28;20203;-77
2022/05/28 00:11:32;;;;;;;6.30;4.63;;;;;;;19.22;55.67;99132.78;6969021;28;20256;-78
2022/05/28 00:14:53;;;;;;;4.40;4.00;;;;;;;19.30;56.26;99132.34;6944930;28;20207;-78
2022/05/28 00:18:15;;;;;;;6.27;4.43;;;;;;;19.15;56.55;99145.75;6943693;28;20219;-78
2022/05/28 00:21:38;;;;;;;7.63;4.43;;;;;;;18.98;56.16;99140.34;6937131;28;20664;-77
2022/05/28 00:25:00;;;;;;;10.13;4.40;;;;;;;18.68;56.35;99148.06;6931729;28;20302;-77
2022/05/28 00:28:21;;;;;;;5.07;4.07;;;;;;;18.83;56.20;99137.38;6945444;28;20231;-77
2022/05/28 00:31:43;;;;;;;4.83;4.30;;;;;;;18.96;57.72;99141.66;6950467;28;20199;-77
2022/05/28 00:35:06;;;;;;;5.43;4.13;;;;;;;18.75;56.16;99147.91;6955327;28;20685;-77
2022/05/28 00:38:29;;;;;;;5.70;5.10;;;;;;;18.48;57.57;99134.09;6934366;28;20236;-78
2022/05/28 00:41:51;;;;;;;6.70;5.27;;;;;;;18.76;56.98;99171.41;6929351;28;20269;-78
2022/05/28 00:45:12;;;;;;;5.30;4.20;;;;;;;18.93;57.12;99166.78;6946349;28;20206;-78
2022/05/28 00:48:36;;;;;;;9.40;4.87;;;;;;;18.49;57.66;99167.66;6945544;28;20223;-77
2022/05/28 00:52:00;;;;;;;5.73;4.80;;;;;;;18.65;57.03;99154.03;6944738;28;20219;-77
2022/05/28 00:55:23;;;;;;;7.73;4.67;;;;;;;17.97;58.30;99166.94;6940632;28;20565;-77
2022/05/28 00:58:46;;;;;;;7.47;5.37;;;;;;;18.27;59.22;99163.97;6956063;28;20645;-77
2022/05/28 01:02:13;;;;;;;8.80;5.30;;;;;;;18.57;58.11;99176.28;6970456;28;20724;-77
2022/05/28 01:05:37;;;;;;;8.00;4.80;;;;;;;18.71;57.74;99172.16;6951978;28;20604;-77
2022/05/28 01:09:05;;;;;;;7.83;4.90;;;;;;;18.56;58.02;99166.44;6944633;28;20361;-77
2022/05/28 01:12:33;;;;;;;8.13;5.23;;;;;;;18.45;58.11;99159.13;6955483;28;20283;-78
2022/05/28 01:15:57;;;;;;;10.63;5.57;;;;;;;18.70;57.97;99170.47;6945549;28;20298;-77
2022/05/28 01:19:27;;;;;;;8.20;5.00;;;;;;;18.65;57.93;99175.88;6944170;28;20375;-77
2022/05/28 01:23:05;;;;;;;9.57;5.03;;;;;;;19.08;56.70;99165.09;6955812;28;20231;-78
2022/05/28 01:26:33;;;;;;;6.77;5.10;;;;;;;18.83;57.18;99166.59;6973412;28;20218;-78
2022/05/28 01:29:57;;;;;;;8.47;5.37;;;;;;;19.05;56.13;99159.31;6965132;28;20257;-77
2022/05/28 01:33:20;;;;;;;6.00;4.10;;;;;;;18.08;53.34;99157.88;6929236;28;20338;-77
2022/05/28 01:36:42;;;;;;;12.13;5.13;;;;;;;18.29;54.20;99137.25;6944804;28;20298;-77
2022/05/28 01:40:06;;;;;;;6.73;3.27;;;;;;;18.20;49.85;99155.09;6948379;28;20298;-78
2022/05/28 01:43:29;;;;;;;7.50;4.03;;;;;;;18.13;49.94;99168.91;6943906;28;20211;-77
2022/05/28 01:46:52;;;;;;;8.70;3.70;;;;;;;17.68;48.81;99151.63;6932153;28;20211;-77
2022/05/28 01:50:15;;;;;;;10.47;3.07;;;;;;;17.98;47.93;99157.69;6922603;28;20231;-78
2022/05/28 01:57:17;;;;;;;8.37;3.07;;;;;;;17.24;48.06;99165.09;6949989;28;20212;-77
2022/05/28 02:00:38;;;;;;;6.87;2.80;;;;;;;17.19;47.66;99151.34;6939747;28;20229;-78
2022/05/28 02:04:04;;;;;;;11.87;3.37;;;;;;;17.18;47.78;99147.81;6948099;28;20675;-78
2022/05/28 02:07:25;;;;;;;8.90;3.57;;;;;;;17.38;48.33;99150.16;6971663;28;20548;-78
2022/05/28 02:10:54;;;;;;;9.70;3.40;;;;;;;17.68;48.97;99131.75;6974484;28;20282;-78
2022/05/28 02:14:22;;;;;;;6.07;3.30;;;;;;;17.72;47.78;99146.53;6977298;28;20189;-78
2022/05/28 02:17:49;;;;;;;7.80;2.97;;;;;;;17.83;46.51;99154.69;6952134;28;20224;-78
2022/05/28 02:21:16;;;;;;;8.20;3.37;;;;;;;17.76;47.44;99114.97;6949283;28;20354;-78
2022/05/28 02:24:43;;;;;;;10.23;3.23;;;;;;;17.56;46.54;99134.47;6956232;28;20218;-78
2022/05/28 02:28:06;;;;;;;10.57;2.90;;;;;;;17.50;46.25;99143.63;6976458;28;20336;-78
2022/05/28 02:31:29;;;;;;;8.13;3.10;;;;;;;16.98;46.09;99143.81;6966539;28;20356;-77
2022/05/28 02:34:51;;;;;;;6.20;2.87;;;;;;;17.28;46.17;99145.28;6948905;28;20300;-78
2022/05/28 02:38:15;;;;;;;12.10;3.27;;;;;;;17.43;46.61;99134.75;6948413;28;20320;-78
2022/05/28 02:41:37;;;;;;;10.53;3.60;;;;;;;17.54;46.38;99139.34;6948431;28;20201;-78
2022/05/28 02:44:59;;;;;;;12.57;3.20;;;;;;;17.49;46.75;99141.97;6948592;28;20669;-78
2022/05/28 02:48:21;;;;;;;8.50;3.37;;;;;;;17.02;47.75;99113.13;6959034;28;20293;-78
2022/05/28 02:51:42;;;;;;;5.53;3.17;;;;;;;17.24;47.02;99135.13;6953522;28;20227;-78
2022/05/28 02:55:06;;;;;;;8.20;3.23;;;;;;;17.65;48.20;99130.31;6947808;28;20203;-77
2022/05/28 02:58:29;;;;;;;17.97;3.47;;;;;;;17.85;46.96;99136.16;6947205;28;20802;-78
2022/05/28 03:01:51;;;;;;;9.30;3.43;;;;;;;17.00;50.07;99139.78;6949075;28;20209;-78
2022/05/28 03:05:13;;;;;;;7.10;3.00;;;;;;;17.26;50.72;99142.00;6977104;28;20307;-78
2022/05/28 03:08:35;;;;;;;6.37;3.20;;;;;;;17.42;49.87;99145.91;6966158;28;20232;-78
2022/05/28 03:11:58;;;;;;;9.60;3.00;;;;;;;17.16;49.72;99124.59;6951508;28;20654;-78
2022/05/28 03:15:20;;;;;;;8.80;3.40;;;;;;;17.00;49.19;99139.78;6967792;28;20201;-78
2022/05/28 03:18:41;;;;;;;5.30;2.87;;;;;;;16.83;48.74;99127.09;6976473;28;20296;-78
2022/05/28 03:22:03;;;;;;;6.43;3.10;;;;;;;16.86;48.54;99137.53;6957898;28;20242;-78
2022/05/28 03:25:25;;;;;;;5.30;3.10;;;;;;;17.04;48.78;99151.03;6942210;28;20259;-78
2022/05/28 03:28:50;;;;;;;6.20;3.33;;;;;;;17.27;48.14;99156.47;6940685;28;20246;-77
2022/05/28 03:32:11;;;;;;;7.63;3.33;;;;;;;17.25;48.64;99162.13;6954251;28;20203;-78
2022/05/28 03:35:33;;;;;;;6.33;3.10;;;;;;;17.02;50.02;99159.44;6949145;28;20337;-78
2022/05/28 03:38:54;;;;;;;9.53;3.33;;;;;;;16.44;52.14;99146.81;6949774;28;20234;-78
2022/05/28 03:42:16;;;;;;;8.20;3.60;;;;;;;16.79;51.97;99148.53;6975111;28;20232;-78
2022/05/28 03:45:39;;;;;;;10.47;3.70;;;;;;;16.61;50.37;99159.53;6975209;28;20213;-78
2022/05/28 03:49:04;;;;;;;12.13;3.27;;;;;;;16.55;49.72;99165.91;6948371;28;20234;-78
2022/05/28 03:52:26;;;;;;;9.33;3.10;;;;;;;16.47;49.40;99154.53;6958683;28;20286;-78
2022/05/28 03:55:48;;;;;;;7.63;3.13;;;;;;;16.59;50.59;99183.44;6975240;28;20350;-77
2022/05/28 03:59:09;;;;;;;5.23;3.43;;;;;;;16.71;52.63;99180.72;6974999;28;20316;-76
2022/05/28 04:02:32;;;;;;;6.50;3.10;;;;;;;16.56;51.17;99188.50;6954201;28;20597;-77
2022/05/28 04:05:54;;;;;;;9.03;3.03;;;;;;;16.42;50.34;99193.34;6947879;28;20215;-77
2022/05/28 04:09:16;;;;;;;8.90;3.37;;;;;;;16.28;48.65;99182.88;6950161;28;20218;-76
2022/05/28 04:12:38;;;;;;;9.77;3.83;;;;;;;16.17;48.74;99153.72;6948674;28;20233;-78
2022/05/28 04:15:59;;;;;;;8.87;3.20;;;;;;;16.57;48.94;99196.44;6972456;28;20229;-77
2022/05/28 04:19:22;;;;;;;8.30;3.67;;;;;;;16.91;49.91;99198.41;6954713;28;20278;-77
2022/05/28 04:22:44;;;;;;;6.10;3.17;;;;;;;16.90;51.21;99195.91;6959253;28;20209;-77
2022/05/28 04:26:06;;;;;;;7.20;3.50;;;;;;;17.02;51.01;99208.47;6954790;28;20246;-77
2022/05/28 04:29:28;;;;;;;10.00;3.70;;;;;;;16.46;53.11;99202.69;6974062;28;20897;-77
2022/05/28 04:32:49;;;;;;;5.57;3.33;;;;;;;16.50;53.42;99225.66;6974617;28;20198;-77
2022/05/28 04:36:12;;;;;;;9.33;3.53;;;;;;;16.39;51.70;99207.41;6967898;28;20214;-77
2022/05/28 04:39:34;;;;;;;8.60;3.20;;;;;;;15.84;49.77;99214.03;6940567;28;20707;-77
2022/05/28 04:42:55;;;;;;;9.93;2.77;;;;;;;16.30;49.99;99219.66;6923814;28;20196;-77
2022/05/28 04:46:17;;;;;;;8.33;3.10;;;;;;;16.40;47.42;99213.69;6937947;28;20265;-78
2022/05/28 04:49:38;;;;;;;6.73;3.40;;;;;;;16.59;46.83;99213.41;6946438;28;20227;-78
2022/05/28 04:53:01;;;;;;;9.13;3.07;;;;;;;17.01;46.10;99203.25;6959066;28;20287;-78
2022/05/28 04:56:23;;;;;;;8.10;2.87;;;;;;;16.92;45.52;99216.38;6955411;28;20677;-78
2022/05/28 04:59:45;;;;;;;10.30;3.27;;;;;;;16.74;44.83;99197.44;6967264;28;20234;-77
2022/05/28 05:03:07;;;;;;;9.07;2.90;;;;;;;17.44;44.21;99210.03;6951793;28;20578;-77
2022/05/28 05:06:28;;;;;;;6.13;2.83;;;;;;;16.92;43.96;99215.56;6953771;28;20687;-77
2022/05/28 05:09:51;;;;;;;7.77;3.27;;;;;;;16.97;44.70;99223.84;6965520;28;20718;-77
2022/05/28 05:13:13;;;;;;;6.70;2.93;;;;;;;16.52;44.93;99217.28;6952927;28;20237;-80
2022/05/28 05:16:34;;;;;;;6.03;2.93;;;;;;;16.86;45.21;99228.22;6964802;28;20210;-77
2022/05/28 05:19:56;;;;;;;3.30;2.53;;;;;;;17.58;44.29;99233.22;6958800;28;20219;-78
2022/05/28 05:23:18;;;;;;;9.63;3.03;;;;;;;17.53;43.96;99221.38;6968549;28;20361;-77
2022/05/28 05:26:41;;;;;;;7.43;2.53;;;;;;;17.17;43.48;99232.53;6950453;28;20203;-77
2022/05/28 05:30:03;;;;;;;10.60;2.50;;;;;;;17.80;43.13;99239.72;6948636;28;20226;-76
2022/05/28 05:33:25;;;;;;;6.90;2.80;;;;;;;17.54;41.97;99245.69;6964163;28;20203;-77
2022/05/28 05:36:46;;;;;;;4.63;2.40;;;;;;;18.37;41.38;99240.63;6943639;28;20218;-79
2022/05/28 05:40:09;;;;;;;6.43;2.47;;;;;;;18.02;41.75;99240.72;6951688;28;20289;-76
2022/05/28 05:43:32;;;;;;;6.87;3.07;;;;;;;17.59;41.78;99232.19;6957875;28;21126;-77
2022/05/28 05:46:55;;;;;;;4.90;2.60;;;;;;;18.58;41.45;99234.47;6952844;28;20251;-77
2022/05/28 05:50:16;;;;;;;8.33;2.83;;;;;;;18.89;39.99;99242.94;6948673;28;20230;-77
2022/05/28 05:53:38;;;;;;;10.07;3.30;;;;;;;19.17;39.40;99237.38;6951633;28;20219;-77
2022/05/28 05:57:00;;;;;;;6.47;2.30;;;;;;;18.94;39.43;99228.53;6951145;28;20818;-77
2022/05/28 06:00:23;;;;;;;8.43;2.60;;;;;;;19.34;38.52;99212.81;6955457;28;20306;-77
2022/05/28 06:03:45;;;;;;;6.17;2.70;;;;;;;19.24;39.83;99240.81;6958866;28;20272;-77
2022/05/28 06:07:07;;;;;;;6.73;2.77;;;;;;;19.91;38.79;99230.53;6963476;28;20226;-77
2022/05/28 06:10:28;;;;;;;8.90;2.70;;;;;;;19.83;38.46;99231.81;6947990;28;20304;-79
2022/05/28 06:13:50;;;;;;;9.23;3.13;;;;;;;20.38;36.71;99235.25;6964300;28;20201;-76
2022/05/28 06:17:13;;;;;;;4.90;2.37;;;;;;;20.67;36.17;99235.81;6948433;28;20309;-77
2022/05/28 06:20:35;;;;;;;5.33;2.70;;;;;;;19.78;35.83;99239.97;6945717;28;20253;-77
2022/05/28 06:23:57;;;;;;;7.87;2.70;;;;;;;19.61;36.11;99246.53;6960790;28;20202;-77
2022/05/28 06:27:18;;;;;;;7.30;2.90;;;;;;;18.70;38.00;99238.78;6977959;28;20211;-76
2022/05/28 06:30:42;;;;;;;8.30;2.50;;;;;;;18.38;38.85;99231.34;6963031;28;20310;-77
2022/05/28 06:34:05;;;;;;;6.40;2.30;;;;;;;19.42;38.85;99242.44;6925030;28;20215;-76
2022/05/28 06:37:27;;;;;;;6.03;2.73;;;;;;;19.80;36.57;99239.72;6924399;28;20271;-77
2022/05/28 06:40:49;;;;;;;4.33;2.40;;;;;;;19.69;36.82;99238.72;6958791;28;20232;-76
2022/05/28 06:44:10;;;;;;;5.57;2.53;;;;;;;20.50;34.86;99233.19;6977679;28;20290;-76
2022/05/28 06:47:32;;;;;;;5.53;2.27;;;;;;;19.85;36.28;99237.03;6954183;28;20264;-79
2022/05/28 06:51:04;;;;;;;7.37;2.33;;;;;;;20.15;35.81;99231.94;6958233;28;20226;-78
2022/05/28 06:54:26;;;;;;;9.93;2.97;;;;;;;18.82;37.03;99244.19;6940014;28;20656;-78
2022/05/28 06:57:47;;;;;;;7.10;3.00;;;;;;;18.93;37.33;99259.69;6943351;28;20210;-78
2022/05/28 07:01:09;;;;;;;7.27;2.43;;;;;;;19.62;36.67;99242.72;6948029;28;20228;-78
2022/05/28 07:04:31;;;;;;;6.63;2.27;;;;;;;19.43;36.06;99246.84;6954924;28;20242;-78
2022/05/28 07:07:54;;;;;;;5.77;2.30;;;;;;;20.12;34.85;99237.97;6950480;28;20207;-77
2022/05/28 07:11:16;;;;;;;6.63;2.40;;;;;;;19.87;35.00;99241.16;6942888;28;20236;-77
2022/05/28 07:14:37;;;;;;;6.60;2.30;;;;;;;19.53;35.98;99239.63;6946793;28;20208;-77
2022/05/28 07:17:59;;;;;;;6.07;2.53;;;;;;;18.68;36.86;99235.47;6955124;28;20206;-78
2022/05/28 07:21:21;;;;;;;3.20;2.10;;;;;;;19.66;36.01;99242.00;6952001;28;20289;-77
2022/05/28 07:24:44;;;;;;;7.80;2.57;;;;;;;19.50;36.63;99231.91;6949052;28;20218;-79
2022/05/28 07:31:42;;;;;;;5.93;2.40;;;;;;;20.87;33.65;99238.75;6948811;28;20286;-82
2022/05/28 07:35:05;;;;;;;6.87;2.40;;;;;;;20.33;34.31;99207.81;6925960;28;20203;-79
2022/05/28 07:38:28;;;;;;;6.17;2.37;;;;;;;20.55;35.06;99221.44;6948938;28;20204;-78
2022/05/28 07:41:51;;;;;;;6.60;2.83;;;;;;;21.70;32.71;99209.50;6940192;28;20266;-78
2022/05/28 07:45:12;;;;;;;3.97;1.90;;;;;;;21.40;32.01;99210.13;6941652;28;20247;-77
2022/05/28 07:48:34;;;;;;;7.50;2.43;;;;;;;21.99;31.02;99205.25;6949837;28;20228;-79
2022/05/28 07:51:55;;;;;;;5.77;2.03;;;;;;;22.14;31.06;99206.13;6950255;28;20241;-78
2022/05/28 07:55:17;;;;;;;6.00;2.27;;;;;;;20.77;31.94;99195.66;6943620;28;20220;-79
2022/05/28 07:58:40;;;;;;;6.33;2.10;;;;;;;21.73;31.98;99190.56;6956600;28;20609;-79
2022/05/28 08:02:02;;;;;;;5.07;2.30;;;;;;;19.68;31.41;99167.84;6951619;28;20319;-79
2022/05/28 08:05:24;;;;;;;5.73;1.70;;;;;;;20.54;32.15;99198.72;6953259;28;20213;-79
2022/05/28 08:08:46;;;;;;;4.73;1.80;;;;;;;20.43;31.62;99116.69;6948932;28;20240;-79
2022/05/28 08:12:08;;;;;;;2.87;1.73;;;;;;;21.33;29.75;99189.50;6949612;28;20205;-78
2022/05/28 08:15:31;;;;;;;5.30;2.30;;;;;;;21.27;30.95;99188.66;6969006;28;20554;-78
2022/05/28 08:18:53;;;;;;;3.73;2.10;;;;;;;21.11;31.70;99196.22;6975591;28;20231;-77
2022/05/28 08:25:54;;;;;;;4.10;1.97;;;;;;;21.06;31.69;99187.94;6975068;28;20198;-78
2022/05/28 08:29:15;;;;;;;4.70;1.93;;;;;;;21.90;30.27;99182.16;6975071;28;20374;-78
2022/05/28 08:32:38;;;;;;;2.80;1.83;;;;;;;21.74;30.36;99192.25;6975979;28;20218;-78
2022/05/28 08:36:00;;;;;;;4.13;2.03;;;;;;;22.44;30.39;99177.94;6976075;28;20295;-78
2022/05/28 08:39:22;;;;;;;3.73;2.10;;;;;;;22.19;29.89;99199.84;6974942;28;20231;-78
2022/05/28 08:42:43;;;;;;;5.13;2.20;;;;;;;22.58;29.62;99182.63;6976897;28;20206;-78
2022/05/28 08:46:07;;;;;;;4.97;1.80;;;;;;;21.75;30.77;99180.16;6979920;28;20209;-78
2022/05/28 08:49:31;;;;;;;5.00;2.10;;;;;;;22.18;30.09;99192.69;6975884;28;20304;-78
2022/05/28 08:52:59;;;;;;;4.67;2.27;;;;;;;22.14;30.99;99188.81;6975971;28;20219;-78
2022/05/28 08:56:23;;;;;;;5.57;1.97;;;;;;;20.96;31.95;99158.53;6975019;28;20224;-78
2022/05/28 08:59:48;;;;;;;8.87;2.53;;;;;;;22.71;30.59;99170.28;6974656;28;20248;-78
2022/05/28 09:03:13;;;;;;;11.77;1.93;;;;;;;23.08;30.06;99160.63;6975091;28;20251;-78
2022/05/28 09:06:39;;;;;;;2.57;1.60;;;;;;;21.86;30.08;99175.53;6974155;28;20216;-78
2022/05/28 09:10:00;;;;;;;3.93;2.00;;;;;;;23.16;29.32;99157.34;6972222;28;20233;-78
2022/05/28 09:13:27;;;;;;;3.73;1.70;;;;;;;22.31;29.24;99157.25;6974848;28;20665;-78
2022/05/28 09:16:50;;;;;;;5.17;1.93;;;;;;;22.51;29.74;99146.34;6975787;28;20283;-78
2022/05/28 09:20:14;;;;;;;2.77;1.50;;;;;;;22.55;29.33;99154.88;6974576;28;20226;-78
2022/05/28 09:23:43;;;;;;;5.30;2.30;;;;;;;22.78;29.91;99163.38;6975315;28;20246;-78
2022/05/28 09:27:07;;;;;;;7.23;2.00;;;;;;;21.93;31.91;99157.72;6975251;28;20298;-78
2022/05/28 09:30:38;;;;;;;4.70;1.80;;;;;;;22.46;29.15;99162.84;6974007;28;20575;-78
2022/05/28 09:34:14;;;;;;;4.43;2.00;;;;;;;22.01;30.86;99146.22;6974300;28;20188;-78
2022/05/28 09:37:42;;;;;;;6.67;2.00;;;;;;;22.67;29.29;99145.25;6974058;28;20189;-78
2022/05/28 09:41:31;;;;;;;4.43;2.37;;;;;;;22.67;30.55;99130.69;6974453;28;20230;-78
2022/05/28 09:45:03;;;;;;;7.20;2.00;;;;;;;22.01;30.67;99139.91;6974522;28;20186;-78
2022/05/28 09:48:28;;;;;;;3.60;1.97;;;;;;;20.82;32.59;99135.34;6945588;28;20248;-78
2022/05/28 09:51:55;;;;;;;3.43;1.73;;;;;;;21.60;31.45;99135.34;6951375;28;20207;-78
2022/05/28 09:55:18;;;;;;;8.67;2.10;;;;;;;21.83;31.35;99143.97;6951180;28;20291;-77
2022/05/28 09:58:42;;;;;;;6.43;1.80;;;;;;;22.70;30.57;99130.97;6967950;28;20228;-79
2022/05/28 10:02:10;;;;;;;3.73;1.80;;;;;;;21.71;29.82;99124.16;6953573;28;20224;-78
2022/05/28 10:05:33;;;;;;;3.97;1.83;;;;;;;22.31;29.69;99123.50;6951803;28;20272;-78
2022/05/28 10:08:55;;;;;;;4.77;1.90;;;;;;;23.63;28.61;99122.00;6951818;28;20239;-78
2022/05/28 10:12:22;;;;;;;5.40;1.83;;;;;;;24.34;26.31;99117.78;6951735;28;20225;-78
2022/05/28 10:15:52;;;;;;;2.63;1.47;;;;;;;22.76;28.06;99113.34;6952145;28;20540;-78
2022/05/28 10:19:20;;;;;;;2.67;2.00;;;;;;;23.58;26.25;99124.75;6951377;28;20228;-78
2022/05/28 10:22:42;;;;;;;5.30;1.70;;;;;;;23.30;27.08;99111.63;6951925;28;20286;-78
2022/05/28 10:26:04;;;;;;;5.60;2.53;;;;;;;23.15;28.18;99113.56;6951805;28;20640;-78
2022/05/28 10:29:29;;;;;;;7.00;2.30;;;;;;;22.69;28.64;99120.22;6951143;28;20242;-78
2022/05/28 10:32:52;;;;;;;3.53;2.00;;;;;;;22.59;28.71;99121.06;6951377;28;20206;-78
2022/05/28 10:36:17;;;;;;;5.47;1.80;;;;;;;21.91;31.55;99096.78;6951584;28;20204;-77
2022/05/28 10:39:39;;;;;;;4.53;2.27;;;;;;;23.09;29.31;99106.44;6951304;28;20228;-77
2022/05/28 10:43:12;;;;;;;4.40;2.00;;;;;;;22.91;29.15;99096.03;6950887;28;20237;-78
2022/05/28 10:46:43;;;;;;;4.07;2.03;;;;;;;23.99;28.16;99112.47;6951712;28;20206;-78
2022/05/28 10:50:16;;;;;;;7.13;2.37;;;;;;;23.97;28.50;99103.69;6950395;28;20227;-78
2022/05/28 10:53:52;;;;;;;5.83;2.07;;;;;;;23.06;28.72;99118.81;6950509;28;20194;-78
2022/05/28 10:57:28;;;;;;;5.23;2.20;;;;;;;23.11;28.06;99106.97;6950972;28;20694;-78
2022/05/28 11:00:59;;;;;;;4.20;1.87;;;;;;;23.56;27.60;99099.47;6950295;28;20232;-78
2022/05/28 11:04:48;;;;;;;3.07;1.90;;;;;;;23.12;28.79;99076.44;6951623;28;20202;-78
2022/05/28 11:08:19;;;;;;;4.57;2.30;;;;;;;23.33;28.17;99093.75;6940059;28;20673;-78
2022/05/28 11:11:54;;;;;;;3.00;1.50;;;;;;;23.25;28.07;99091.59;6951100;28;20202;-78
2022/05/28 11:15:31;;;;;;;3.90;1.90;;;;;;;23.18;26.80;99075.34;6951065;28;20279;-78
2022/05/28 11:19:11;;;;;;;1.90;1.63;;;;;;;22.61;27.47;99091.34;6949861;28;20269;-78
2022/05/28 11:22:44;;;;;;;2.93;1.80;;;;;;;23.64;26.74;99082.34;6950144;28;20227;-78
2022/05/28 11:26:17;;;;;;;3.50;2.57;;;;;;;23.40;26.89;99078.59;6950203;28;20316;-78
2022/05/28 11:29:49;;;;;;;5.27;1.97;;;;;;;22.87;27.27;99079.25;6949457;28;20251;-77
2022/05/28 11:33:13;;;;;;;5.73;2.23;;;;;;;22.66;27.61;99071.31;6950005;28;20223;-77
2022/05/28 11:36:39;;;;;;;5.30;1.70;;;;;;;23.68;26.87;99047.63;6949744;28;20234;-77
2022/05/28 11:40:03;;;;;;;4.20;2.00;;;;;;;24.53;25.05;99049.78;6949183;28;20234;-78
2022/05/28 11:43:29;;;;;;;2.97;1.43;;;;;;;23.77;25.26;99037.66;6949752;28;20242;-77
2022/05/28 11:46:55;;;;;;;4.33;1.70;;;;;;;24.70;24.24;99041.94;6950910;28;20577;-78
2022/05/28 11:54:06;;;;;;;4.43;1.80;;;;;;;24.98;24.08;99030.09;6948900;28;20200;-78
2022/05/28 11:57:31;;;;;;;4.70;1.73;;;;;;;24.50;24.65;99010.97;6955556;28;20191;-78
2022/05/28 12:00:57;;;;;;;4.87;1.90;;;;;;;24.79;25.43;99023.66;6965575;28;20295;-78
2022/05/28 12:04:19;;;;;;;3.57;1.73;;;;;;;25.75;23.74;99020.56;6949986;28;20207;-78
2022/05/28 12:07:41;;;;;;;3.00;2.03;;;;;;;25.49;22.22;99016.53;6948912;28;20793;-78
2022/05/28 12:11:05;;;;;;;3.40;1.63;;;;;;;25.02;24.13;99003.53;6949254;28;20228;-77
2022/05/28 12:14:30;;;;;;;2.50;1.50;;;;;;;24.89;23.77;99000.66;6948129;28;20258;-78
2022/05/28 12:18:03;;;;;;;4.43;1.57;;;;;;;25.40;23.36;99002.56;6947943;28;20690;-78
2022/05/28 12:21:26;;;;;;;4.27;1.70;;;;;;;23.61;24.42;98997.53;6948495;28;20762;-78
2022/05/28 12:24:56;;;;;;;3.77;1.60;;;;;;;24.01;24.38;99005.56;6948955;28;20569;-79
2022/05/28 12:28:25;;;;;;;3.60;1.87;;;;;;;23.94;24.30;98984.97;6948174;28;20210;-78
2022/05/28 12:31:47;;;;;;;3.00;1.60;;;;;;;22.81;26.96;99005.28;6951265;28;20308;-78
2022/05/28 12:35:25;;;;;;;5.30;2.00;;;;;;;23.70;25.98;98997.75;6948112;28;20210;-78
2022/05/28 12:38:53;;;;;;;1.70;1.40;;;;;;;22.63;26.66;98998.47;6947119;28;20233;-78
2022/05/28 12:42:21;;;;;;;4.70;1.90;;;;;;;23.35;26.23;98960.28;6948427;28;20231;-78
2022/05/28 12:45:44;;;;;;;3.40;2.17;;;;;;;23.48;27.20;98967.91;6947087;28;20345;-78
2022/05/28 12:49:08;;;;;;;4.63;1.93;;;;;;;22.92;27.20;98961.00;6945304;28;20231;-77
2022/05/28 12:52:38;;;;;;;4.87;1.93;;;;;;;23.06;27.60;98958.47;6947190;28;20249;-78
2022/05/28 12:56:02;;;;;;;2.67;1.40;;;;;;;24.62;24.95;98956.28;6946812;28;20330;-78
2022/05/28 12:59:33;;;;;;;3.70;1.97;;;;;;;24.35;25.13;98954.03;6946958;28;20218;-78
2022/05/28 13:02:55;;;;;;;5.63;1.77;;;;;;;23.78;25.05;98944.88;6947264;28;20251;-78
2022/05/28 13:06:23;;;;;;;3.80;1.93;;;;;;;23.92;25.90;98940.38;6948019;28;20620;-78
2022/05/28 13:09:47;;;;;;;3.90;1.80;;;;;;;23.39;24.73;98942.09;6946743;28;20707;-78
2022/05/28 13:13:19;;;;;;;5.20;1.70;;;;;;;23.02;25.42;98930.69;6947111;28;20242;-77
2022/05/28 13:16:57;;;;;;;5.53;1.83;;;;;;;24.77;24.07;98912.00;6947160;28;20265;-78
2022/05/28 13:20:45;;;;;;;3.57;1.90;;;;;;;24.35;24.98;98920.97;6946840;28;20591;-78
2022/05/28 13:24:49;;;;;;;2.53;1.77;;;;;;;25.36;23.82;98904.88;6946432;28;20270;-78
2022/05/28 13:28:52;;;;;;;3.83;1.93;;;;;;;25.62;23.67;98914.44;6951689;28;20238;-78
2022/05/28 13:32:17;;;;;;;3.70;1.60;;;;;;;23.28;25.66;98903.91;6916595;28;20239;-77
2022/05/28 13:35:42;;;;;;;3.43;1.70;;;;;;;24.44;25.00;98904.59;6953095;28;20534;-77
2022/05/28 13:39:06;;;;;;;3.87;1.57;;;;;;;24.78;25.13;98908.13;6951668;28;20233;-78
2022/05/28 13:42:29;;;;;;;2.30;1.50;;;;;;;23.67;25.63;98908.31;6951909;28;20227;-78
2022/05/28 13:45:52;;;;;;;2.53;1.70;;;;;;;23.94;25.04;98886.63;6952407;28;20211;-77
2022/05/28 13:49:16;;;;;;;2.43;1.80;;;;;;;23.76;26.03;98883.72;6951318;28;20245;-78
2022/05/28 13:52:39;;;;;;;3.43;1.73;;;;;;;23.81;25.77;98892.78;6953459;28;20221;-78
2022/05/28 13:56:02;;;;;;;2.00;1.50;;;;;;;23.56;25.58;98897.66;6951882;28;20721;-77
2022/05/28 13:59:34;;;;;;;3.17;1.60;;;;;;;22.23;27.08;98879.53;6952243;28;20235;-77
2022/05/28 14:02:58;;;;;;;2.77;1.30;;;;;;;22.23;27.83;98874.03;6952492;28;20234;-78
2022/05/28 14:06:23;;;;;;;4.27;1.70;;;;;;;22.56;28.53;98885.25;6951638;28;20242;-78
2022/05/28 14:09:46;;;;;;;3.17;1.80;;;;;;;22.77;28.17;98875.00;6951258;28;20236;-78
2022/05/28 14:13:15;;;;;;;2.93;1.60;;;;;;;22.59;28.35;98884.69;6952536;28;20229;-78
2022/05/28 14:16:40;;;;;;;4.73;1.60;;;;;;;23.35;26.51;98887.88;6952072;28;20205;-77
2022/05/28 14:20:03;;;;;;;5.33;1.77;;;;;;;22.51;27.31;98882.53;6951826;28;20225;-78
2022/05/28 14:23:26;;;;;;;2.73;1.50;;;;;;;22.36;27.92;98878.97;6952286;28;20630;-78
2022/05/28 14:26:49;;;;;;;2.87;1.20;;;;;;;23.13;26.62;98874.50;6952117;28;20268;-78
2022/05/28 14:30:13;;;;;;;4.23;2.13;;;;;;;23.70;26.06;98868.34;6950729;28;20723;-78
2022/05/28 14:33:39;;;;;;;5.40;1.77;;;;;;;22.34;27.36;98868.25;6951303;28;20204;-77
2022/05/28 14:37:00;;;;;;;3.93;1.53;;;;;;;23.39;26.09;98866.97;6950596;28;20222;-78
2022/05/28 14:40:23;;;;;;;2.93;1.17;;;;;;;24.09;24.17;98869.97;6950767;28;20765;-78
2022/05/28 14:43:50;;;;;;;2.50;1.40;;;;;;;24.24;23.08;98850.53;6950893;28;20251;-78
2022/05/28 14:47:13;;;;;;;4.17;1.63;;;;;;;24.21;24.03;98840.09;6951311;28;20202;-78
2022/05/28 14:50:41;;;;;;;2.30;1.77;;;;;;;24.43;23.99;98847.84;6950403;28;20221;-78
2022/05/28 14:54:03;;;;;;;5.67;1.97;;;;;;;23.45;24.43;98857.56;6949845;28;20202;-78
2022/05/28 14:57:33;;;;;;;2.70;1.60;;;;;;;23.89;24.27;98848.13;6949939;28;20234;-78
2022/05/28 15:01:06;;;;;;;4.20;1.30;;;;;;;23.36;24.47;98835.31;6949875;28;20376;-78
2022/05/28 15:04:34;;;;;;;3.23;1.40;;;;;;;23.08;25.47;98837.97;6950352;28;20226;-78
2022/05/28 15:07:59;;;;;;;2.43;1.70;;;;;;;23.63;24.80;98840.34;6949974;28;20214;-78
2022/05/28 15:11:28;;;;;;;4.50;2.07;;;;;;;23.98;25.14;98840.06;6950115;28;20876;-78
2022/05/28 15:14:49;;;;;;;3.07;1.60;;;;;;;24.67;24.09;98818.34;6949208;28;20194;-78
2022/05/28 15:18:11;;;;;;;2.83;1.63;;;;;;;23.83;25.13;98826.41;6949251;28;20213;-78
2022/05/28 15:21:35;;;;;;;3.83;2.47;;;;;;;23.38;24.62;98818.53;6949681;28;20238;-78
2022/05/28 15:24:59;;;;;;;4.03;1.63;;;;;;;23.51;25.73;98809.63;6949981;28;20207;-78
2022/05/28 15:28:21;;;;;;;2.03;1.60;;;;;;;24.07;25.44;98808.03;6949971;28;20214;-77
2022/05/28 15:31:42;;;;;;;3.83;1.53;;;;;;;22.46;27.57;98800.09;6951118;28;20210;-78
2022/05/28 15:35:11;;;;;;;5.87;1.80;;;;;;;22.71;26.57;98810.97;6951007;28;20213;-78
2022/05/28 15:38:32;;;;;;;2.53;1.40;;;;;;;23.40;26.13;98781.38;6949617;28;20231;-78
2022/05/28 15:41:55;;;;;;;1.83;1.50;;;;;;;22.71;27.17;98799.97;6950776;28;20322;-78
2022/05/28 15:45:19;;;;;;;3.23;1.63;;;;;;;23.25;26.29;98789.72;6951668;28;20265;-78
2022/05/28 15:48:40;;;;;;;1.83;1.27;;;;;;;22.14;27.79;98794.13;6948681;28;20233;-78
2022/05/28 15:52:02;;;;;;;2.90;1.57;;;;;;;22.66;27.31;98764.25;6948910;28;20206;-78
2022/05/28 15:55:26;;;;;;;3.93;1.53;;;;;;;22.52;27.15;98789.88;6948208;28;20723;-78
2022/05/28 15:58:48;;;;;;;2.37;1.60;;;;;;;22.58;28.00;98784.09;6948973;28;20233;-78
2022/05/28 16:02:15;;;;;;;4.30;2.20;;;;;;;22.80;27.26;98775.44;6948817;28;20254;-78
2022/05/28 16:05:38;;;;;;;2.23;1.30;;;;;;;22.71;27.15;98761.47;6948815;28;20251;-78
2022/05/28 16:09:00;;;;;;;2.10;1.50;;;;;;;22.73;27.32;98769.44;6945444;28;20213;-78
2022/05/28 16:12:22;;;;;;;1.63;1.30;;;;;;;23.18;26.55;98778.25;6921932;28;20208;-78
2022/05/28 16:15:45;;;;;;;4.20;1.60;;;;;;;23.52;24.96;98751.53;6921787;28;20215;-78